Time;durP1;ratioP1;P1;durP2;ratioP2;P2;SDS_P1;SDS_P2;PMS_P1;PMS_P2;Temp;Humidity;BMP_temperature;BMP_pressure;BME280_temperature;BME280_humidity;BME280_pressure;Samples;Min_cycle;Max_cycle;Signal;HPM_P1;HPM_P2
2023/06/28 00:01:17;;;;;;;12.90;12.00;;;;;;;18.03;91.54;92659.78;5012141;28;20234;-75
2023/06/28 00:03:42;;;;;;;12.10;11.20;;;;;;;18.05;92.92;92662.09;5019959;28;20229;-75
2023/06/28 00:06:08;;;;;;;13.13;12.13;;;;;;;17.95;93.92;92665.13;5009025;28;20225;-76
2023/06/28 00:08:33;;;;;;;12.07;11.07;;;;;;;17.85;94.33;92670.78;5015073;28;20205;-78
2023/06/28 00:10:59;;;;;;;13.90;12.70;;;;;;;17.83;94.32;92665.84;5011894;28;20239;-76
2023/06/28 00:13:24;;;;;;;13.07;11.97;;;;;;;17.79;94.30;92658.88;5013196;28;20205;-77
2023/06/28 00:15:50;;;;;;;13.40;12.20;;;;;;;17.81;95.40;92664.59;5014331;28;20221;-77
2023/06/28 00:18:15;;;;;;;13.27;12.37;;;;;;;17.90;93.83;92657.41;5012850;28;20634;-77
2023/06/28 00:20:41;;;;;;;13.17;12.10;;;;;;;17.89;93.42;92664.53;5012503;28;20994;-77
2023/06/28 00:23:09;;;;;;;13.30;12.30;;;;;;;17.80;95.03;92658.56;5013180;28;20213;-77
2023/06/28 00:25:37;;;;;;;12.63;11.73;;;;;;;17.78;95.32;92662.59;5012184;28;20216;-77
2023/06/28 00:28:03;;;;;;;13.03;11.73;;;;;;;17.74;94.31;92664.34;5004548;28;20260;-77
2023/06/28 00:30:30;;;;;;;13.50;12.40;;;;;;;17.75;94.34;92660.59;5009140;28;20243;-77
2023/06/28 00:32:55;;;;;;;14.33;13.13;;;;;;;17.76;94.93;92656.88;5012659;28;20193;-77
2023/06/28 00:35:21;;;;;;;14.27;13.17;;;;;;;17.59;96.30;92661.16;5011419;28;20228;-77
2023/06/28 00:37:46;;;;;;;12.87;11.87;;;;;;;17.40;96.92;92637.00;5013060;28;20201;-77
2023/06/28 00:40:11;;;;;;;13.50;12.47;;;;;;;17.55;98.24;92667.41;5011940;28;20247;-78
2023/06/28 00:42:37;;;;;;;13.30;12.20;;;;;;;17.52;98.58;92657.47;5043563;28;20208;-78
2023/06/28 00:45:02;;;;;;;13.73;12.67;;;;;;;17.36;99.00;92641.38;5012478;28;20234;-78
2023/06/28 00:47:29;;;;;;;14.60;13.40;;;;;;;17.73;98.97;92666.19;5011281;28;20212;-78
2023/06/28 00:49:55;;;;;;;14.10;13.03;;;;;;;17.51;99.09;92638.22;5012235;28;20228;-77
2023/06/28 00:52:21;;;;;;;15.60;14.30;;;;;;;17.47;99.46;92653.16;5012803;28;20182;-77
2023/06/28 00:54:46;;;;;;;14.10;12.73;;;;;;;17.49;99.45;92661.50;5012187;28;20235;-78
2023/06/28 00:57:12;;;;;;;14.90;13.43;;;;;;;17.29;100.00;92650.91;5012760;28;20192;-78
2023/06/28 00:59:37;;;;;;;15.27;14.17;;;;;;;17.45;100.00;92660.63;5011995;28;20241;-77
2023/06/28 01:02:03;;;;;;;16.03;14.47;;;;;;;17.32;99.88;92658.19;5043973;28;20215;-77
2023/06/28 01:04:29;;;;;;;14.87;13.57;;;;;;;17.32;99.58;92660.81;5011569;28;20232;-78
2023/06/28 01:06:59;;;;;;;14.97;13.77;;;;;;;17.34;99.53;92650.69;5012193;28;20184;-78
2023/06/28 01:09:27;;;;;;;15.73;14.37;;;;;;;17.23;99.41;92642.38;5013420;28;20247;-77
2023/06/28 01:11:55;;;;;;;15.83;14.53;;;;;;;17.30;99.83;92658.50;5011065;28;20215;-77
2023/06/28 01:14:22;;;;;;;15.43;14.13;;;;;;;17.23;100.00;92652.94;5027092;28;20232;-77
2023/06/28 01:16:54;;;;;;;16.20;14.80;;;;;;;17.23;100.00;92655.56;5026234;28;20205;-78
2023/06/28 01:19:24;;;;;;;15.53;14.23;;;;;;;17.23;100.00;92663.47;5014108;28;20195;-78
2023/06/28 01:21:52;;;;;;;15.50;14.30;;;;;;;17.16;100.00;92657.94;5015697;28;20187;-77
2023/06/28 01:24:21;;;;;;;17.43;15.93;;;;;;;17.04;100.00;92655.16;5012679;28;20215;-77
2023/06/28 01:26:51;;;;;;;18.73;15.40;;;;;;;17.12;100.00;92649.09;5011729;28;20189;-77
2023/06/28 01:29:21;;;;;;;16.47;15.17;;;;;;;17.08;100.00;92639.50;5012088;28;20184;-77
2023/06/28 01:31:48;;;;;;;16.17;14.87;;;;;;;17.14;100.00;92654.06;5011895;28;20203;-78
2023/06/28 01:34:14;;;;;;;16.87;15.47;;;;;;;17.15;100.00;92655.63;5011440;28;20204;-78
2023/06/28 01:36:40;;;;;;;18.13;16.53;;;;;;;16.57;100.00;92568.50;5011118;28;20208;-78
2023/06/28 01:39:05;;;;;;;17.40;15.97;;;;;;;17.17;100.00;92667.38;5011516;28;20193;-77
2023/06/28 01:41:31;;;;;;;18.03;16.33;;;;;;;17.17;100.00;92663.97;5012998;28;20243;-77
2023/06/28 01:43:57;;;;;;;18.07;16.23;;;;;;;16.99;100.00;92660.66;5011863;28;20218;-78
2023/06/28 01:46:23;;;;;;;17.83;16.27;;;;;;;17.15;100.00;92661.66;5016138;28;20214;-77
2023/06/28 01:48:48;;;;;;;18.47;16.97;;;;;;;17.13;100.00;92658.56;5019007;28;20187;-78
2023/06/28 01:51:15;;;;;;;18.77;17.07;;;;;;;17.07;100.00;92644.00;5022409;28;20227;-77
2023/06/28 01:53:40;;;;;;;20.03;18.13;;;;;;;17.18;100.00;92658.38;5010797;28;20865;-78
2023/06/28 01:56:06;;;;;;;18.40;16.53;;;;;;;17.15;100.00;92658.25;5010886;28;20224;-78
2023/06/28 01:58:31;;;;;;;18.43;16.80;;;;;;;17.14;100.00;92664.59;5011182;28;20223;-77
2023/06/28 02:00:57;;;;;;;19.70;18.10;;;;;;;17.08;100.00;92648.19;5010705;28;20255;-78
2023/06/28 02:03:22;;;;;;;21.90;19.63;;;;;;;17.12;100.00;92653.63;5011306;28;20306;-77
2023/06/28 02:05:47;;;;;;;22.00;19.87;;;;;;;17.31;100.00;92665.31;5042634;28;20239;-78
2023/06/28 02:08:13;;;;;;;23.63;21.13;;;;;;;17.30;100.00;92668.28;5016693;28;20192;-77
2023/06/28 02:10:38;;;;;;;24.57;22.37;;;;;;;17.23;100.00;92652.94;5008543;28;20224;-77
2023/06/28 02:13:04;;;;;;;21.67;19.77;;;;;;;17.44;100.00;92677.56;5010760;28;20202;-77
2023/06/28 02:15:29;;;;;;;21.10;19.00;;;;;;;17.47;100.00;92668.22;5014379;28;20224;-77
2023/06/28 02:17:56;;;;;;;21.83;19.90;;;;;;;17.56;100.00;92677.63;5011004;28;20191;-77
2023/06/28 02:20:22;;;;;;;22.23;20.33;;;;;;;17.62;99.82;92680.09;5013907;28;20247;-77
2023/06/28 02:22:47;;;;;;;21.83;19.93;;;;;;;17.63;99.37;92669.97;5019130;28;20196;-77
2023/06/28 02:25:12;;;;;;;22.10;20.20;;;;;;;17.62;98.77;92674.81;5010549;28;20247;-77
2023/06/28 02:27:38;;;;;;;21.60;19.60;;;;;;;17.63;97.85;92668.44;5010766;28;20196;-78
2023/06/28 02:30:04;;;;;;;21.27;19.37;;;;;;;17.60;98.83;92681.19;5009333;28;20252;-77
2023/06/28 02:32:32;;;;;;;22.73;20.90;;;;;;;17.66;98.56;92687.06;5024762;28;20191;-78
2023/06/28 02:34:57;;;;;;;22.37;20.47;;;;;;;17.67;98.59;92687.81;5010473;28;20216;-77
2023/06/28 02:37:24;;;;;;;22.87;20.97;;;;;;;17.53;99.07;92669.56;5010110;28;20188;-78
2023/06/28 02:39:49;;;;;;;22.87;20.97;;;;;;;17.48;99.97;92678.47;5009443;28;20251;-77
2023/06/28 02:42:14;;;;;;;22.03;20.13;;;;;;;17.38;100.00;92665.59;5010726;28;20203;-77
2023/06/28 02:44:40;;;;;;;22.57;20.67;;;;;;;17.51;99.82;92683.09;5010246;28;20235;-77
2023/06/28 02:47:06;;;;;;;23.50;21.50;;;;;;;17.52;100.00;92684.66;5010443;28;20223;-77
2023/06/28 02:49:31;;;;;;;22.23;20.33;;;;;;;17.63;99.85;92674.50;5009451;28;20986;-77
2023/06/28 02:51:57;;;;;;;23.23;21.07;;;;;;;17.63;99.50;92672.63;5010341;28;20220;-77
2023/06/28 02:54:22;;;;;;;22.80;20.77;;;;;;;17.64;100.00;92689.25;5009691;28;20174;-77
2023/06/28 02:56:47;;;;;;;23.83;21.33;;;;;;;17.52;100.00;92668.03;5010269;28;20187;-77
2023/06/28 02:59:13;;;;;;;23.80;21.50;;;;;;;17.38;100.00;92662.19;5009939;28;20237;-77
2023/06/28 03:01:38;;;;;;;21.77;19.93;;;;;;;17.42;100.00;92668.34;5018599;28;20253;-78
2023/06/28 03:04:03;;;;;;;22.97;20.87;;;;;;;17.56;100.00;92687.41;5009075;28;20243;-77
2023/06/28 03:06:29;;;;;;;24.13;21.97;;;;;;;17.31;100.00;92665.31;5009059;28;20283;-77
2023/06/28 03:08:55;;;;;;;23.07;20.87;;;;;;;17.59;100.00;92687.56;5010042;28;20175;-77
2023/06/28 03:11:20;;;;;;;22.93;20.87;;;;;;;17.88;100.00;92691.28;5009620;28;20231;-78
2023/06/28 03:13:46;;;;;;;22.07;20.03;;;;;;;17.94;99.21;92697.91;5019152;28;20194;-78
2023/06/28 03:16:11;;;;;;;23.00;20.87;;;;;;;17.61;100.00;92684.59;5015393;28;20232;-77
2023/06/28 03:18:37;;;;;;;22.63;20.73;;;;;;;17.71;99.08;92689.53;5009632;28;20197;-78
2023/06/28 03:21:03;;;;;;;22.03;19.93;;;;;;;17.93;98.34;92686.56;5017962;28;20220;-77
2023/06/28 03:23:28;;;;;;;21.43;19.33;;;;;;;18.00;97.53;92667.56;5009422;28;20220;-77
2023/06/28 03:25:54;;;;;;;23.07;21.07;;;;;;;17.97;97.04;92689.34;5009826;28;20225;-77
2023/06/28 03:28:19;;;;;;;22.73;20.70;;;;;;;18.33;95.82;92682.41;5009854;28;20195;-78
2023/06/28 03:30:45;;;;;;;21.03;18.93;;;;;;;18.44;96.03;92688.88;5009837;28;20224;-77
2023/06/28 03:33:10;;;;;;;22.43;20.33;;;;;;;18.22;96.44;92683.09;5010147;28;20200;-78
2023/06/28 03:35:36;;;;;;;22.23;19.93;;;;;;;18.22;96.25;92664.59;5009390;28;20710;-77
2023/06/28 03:38:01;;;;;;;22.70;20.40;;;;;;;18.76;94.38;92688.09;5009295;28;20213;-77
2023/06/28 03:40:28;;;;;;;22.00;19.80;;;;;;;18.76;93.05;92679.38;5010310;28;20312;-77
2023/06/28 03:42:53;;;;;;;22.83;20.23;;;;;;;18.91;92.24;92681.44;5013634;28;20198;-78
2023/06/28 03:45:19;;;;;;;23.13;20.83;;;;;;;19.00;92.53;92682.09;5012706;28;20296;-69
2023/06/28 03:47:44;;;;;;;21.80;19.70;;;;;;;19.03;92.93;92682.22;5013845;28;20190;-70
2023/06/28 03:50:10;;;;;;;23.23;21.13;;;;;;;19.03;92.87;92682.22;5009672;28;20233;-69
2023/06/28 03:52:36;;;;;;;20.93;19.03;;;;;;;19.13;91.88;92665.91;5012058;28;20198;-68
2023/06/28 03:55:02;;;;;;;22.73;20.43;;;;;;;19.23;91.45;92670.00;5013661;28;20232;-69
2023/06/28 03:57:28;;;;;;;22.60;20.40;;;;;;;19.35;91.85;92688.56;5012546;28;20193;-71
2023/06/28 03:59:53;;;;;;;23.23;21.03;;;;;;;19.45;91.87;92666.19;5012493;28;20276;-70
2023/06/28 04:02:20;;;;;;;22.33;20.23;;;;;;;19.64;90.41;92680.44;5012097;28;20193;-70
2023/06/28 04:04:45;;;;;;;21.30;19.17;;;;;;;19.40;91.65;92680.41;5012015;28;20284;-73
2023/06/28 04:07:10;;;;;;;23.23;21.10;;;;;;;19.32;92.51;92667.28;5013375;28;20202;-71
2023/06/28 04:09:37;;;;;;;21.53;19.53;;;;;;;19.54;90.84;92685.38;5030705;28;20229;-70
2023/06/28 04:12:02;;;;;;;22.90;20.53;;;;;;;19.72;91.04;92682.16;5013808;28;20210;-73
2023/06/28 04:14:28;;;;;;;22.10;19.98;;;;;;;19.86;88.94;92677.31;5013499;28;20237;-70
2023/06/28 04:16:53;;;;;;;22.37;20.10;;;;;;;20.09;88.69;92686.34;5014534;28;20396;-69
2023/06/28 04:19:19;;;;;;;23.67;21.27;;;;;;;20.05;88.18;92688.09;5019475;28;20212;-69
2023/06/28 04:21:44;;;;;;;21.57;19.57;;;;;;;20.02;88.74;92695.94;5016535;28;20326;-73
2023/06/28 04:24:10;;;;;;;22.65;20.52;;;;;;;20.02;88.88;92688.00;5019472;28;20222;-73
2023/06/28 04:26:36;;;;;;;24.23;21.73;;;;;;;19.88;90.01;92703.47;5013009;28;20548;-70
2023/06/28 04:29:02;;;;;;;22.47;20.17;;;;;;;19.95;89.65;92688.56;5013059;28;20206;-68
2023/06/28 04:31:28;;;;;;;22.27;20.17;;;;;;;20.07;89.04;92690.41;5012227;28;20245;-69
2023/06/28 04:33:57;;;;;;;22.95;20.55;;;;;;;20.02;88.81;92678.16;5010009;28;20187;-67
2023/06/28 04:36:25;;;;;;;22.97;20.83;;;;;;;21.82;81.57;92697.81;5011895;28;20278;-66
2023/06/28 04:38:52;;;;;;;24.27;20.48;;;;;;;22.88;75.72;92706.16;5008936;28;20204;-70
2023/06/28 04:41:27;;;;;;;21.00;18.95;;;;;;;22.16;77.45;92709.59;5006947;28;20283;-70
2023/06/28 04:43:57;;;;;;;20.83;18.92;;;;;;;21.97;78.66;92705.00;5002609;28;20235;-70
2023/06/28 04:46:26;;;;;;;20.85;18.88;;;;;;;21.88;78.33;92703.66;5010629;28;20356;-70
2023/06/28 04:48:53;;;;;;;22.25;20.02;;;;;;;21.91;78.80;92706.38;5011312;28;20190;-69
2023/06/28 04:51:19;;;;;;;22.10;19.83;;;;;;;21.53;80.44;92710.72;5009964;28;20224;-70
2023/06/28 04:53:46;;;;;;;20.63;18.63;;;;;;;20.62;83.24;92709.09;5010512;28;20201;-70
2023/06/28 04:56:12;;;;;;;22.60;20.25;;;;;;;20.46;83.86;92703.75;5010747;28;20238;-71
2023/06/28 04:58:38;;;;;;;20.30;18.35;;;;;;;21.09;82.06;92702.03;5015836;28;20289;-70
2023/06/28 05:01:07;;;;;;;21.27;19.27;;;;;;;20.69;82.68;92701.31;5010047;28;20226;-70
2023/06/28 05:03:33;;;;;;;22.27;19.58;;;;;;;20.80;82.49;92715.66;5009754;28;20234;-71
2023/06/28 05:06:01;;;;;;;21.08;18.63;;;;;;;21.11;81.54;92726.38;5018037;28;20244;-71
2023/06/28 05:08:27;;;;;;;21.67;19.38;;;;;;;21.89;78.88;92731.75;5014738;28;20195;-71
2023/06/28 05:10:53;;;;;;;21.27;19.25;;;;;;;22.58;76.23;92734.47;5010031;28;20232;-70
2023/06/28 05:13:18;;;;;;;22.10;19.85;;;;;;;22.16;76.46;92726.31;4999389;28;20199;-68
2023/06/28 05:15:44;;;;;;;20.65;18.52;;;;;;;22.04;77.36;92730.97;5009532;28;20220;-69
2023/06/28 05:18:09;;;;;;;22.10;19.25;;;;;;;22.35;75.99;92730.91;5012704;28;20194;-69
2023/06/28 05:20:35;;;;;;;20.85;18.77;;;;;;;23.40;72.87;92732.28;5013659;28;20226;-69
2023/06/28 05:23:15;;;;;;;19.95;17.95;;;;;;;24.76;67.81;92727.56;5011201;28;20217;-69
2023/06/28 05:25:41;;;;;;;18.92;16.98;;;;;;;24.11;69.66;92728.91;5001435;28;20301;-71
2023/06/28 05:28:08;;;;;;;20.42;18.38;;;;;;;23.89;69.35;92727.00;5010442;28;20246;-70
2023/06/28 05:30:34;;;;;;;20.27;16.83;;;;;;;23.34;70.72;92723.81;5011500;28;20233;-71
2023/06/28 05:33:02;;;;;;;19.48;17.58;;;;;;;22.99;72.79;92728.44;5013211;28;20174;-72
2023/06/28 05:35:32;;;;;;;20.10;18.02;;;;;;;22.81;72.90;92713.25;5005010;28;20259;-70
2023/06/28 05:38:02;;;;;;;20.02;17.90;;;;;;;23.19;73.19;92711.31;5011830;28;20190;-71
2023/06/28 05:40:28;;;;;;;19.55;17.48;;;;;;;24.97;68.15;92720.56;5011093;28;20228;-71
2023/06/28 05:42:54;;;;;;;27.33;18.60;;;;;;;27.06;58.93;92732.59;5011592;28;20715;-71
2023/06/28 05:45:21;;;;;;;18.40;16.23;;;;;;;28.15;53.19;92732.88;5010969;28;20242;-70
2023/06/28 05:47:46;;;;;;;17.70;16.08;;;;;;;29.22;50.38;92734.97;5015754;28;20183;-70
2023/06/28 05:50:12;;;;;;;18.33;16.70;;;;;;;29.30;50.11;92737.25;5010669;28;20227;-70
2023/06/28 05:52:37;;;;;;;17.63;15.93;;;;;;;30.25;47.58;92738.63;5009133;28;20182;-71
2023/06/28 05:55:03;;;;;;;18.25;16.55;;;;;;;30.15;47.83;92744.84;5010903;28;20280;-70
2023/06/28 05:57:28;;;;;;;18.65;16.90;;;;;;;29.57;48.77;92734.81;5043154;28;20187;-71
2023/06/28 05:59:54;;;;;;;19.92;17.83;;;;;;;28.86;49.33;92739.69;5007512;28;20239;-69
2023/06/28 06:02:19;;;;;;;18.90;17.20;;;;;;;30.21;46.23;92738.66;5010883;28;20202;-70
2023/06/28 06:04:45;;;;;;;17.73;16.23;;;;;;;31.24;44.05;92748.06;5009393;28;20232;-71
2023/06/28 06:07:10;;;;;;;18.50;16.75;;;;;;;31.75;43.40;92754.38;5010747;28;20184;-71
2023/06/28 06:09:35;;;;;;;18.13;16.52;;;;;;;30.31;44.18;92742.41;5009772;28;20267;-72
2023/06/28 06:12:01;;;;;;;19.05;17.25;;;;;;;31.34;42.87;92741.03;5010270;28;20199;-70
2023/06/28 06:14:26;;;;;;;18.23;16.52;;;;;;;31.30;43.80;92742.25;5011284;28;20246;-70
2023/06/28 06:16:54;;;;;;;18.05;16.45;;;;;;;31.57;42.77;92749.22;5010558;28;20176;-72
2023/06/28 06:19:19;;;;;;;17.35;15.60;;;;;;;32.65;41.13;92746.88;5014021;28;20194;-70
2023/06/28 06:21:45;;;;;;;18.25;16.52;;;;;;;30.81;44.93;92738.91;5012097;28;20243;-71
2023/06/28 06:24:10;;;;;;;18.42;16.52;;;;;;;29.42;46.12;92744.88;5009685;28;20211;-71
2023/06/28 06:26:36;;;;;;;19.20;17.42;;;;;;;29.84;46.98;92749.28;5010199;28;20187;-71
2023/06/28 06:29:02;;;;;;;18.15;16.35;;;;;;;28.57;50.41;92748.97;5010559;28;20188;-70
2023/06/28 06:31:28;;;;;;;20.05;18.05;;;;;;;27.68;51.86;92747.38;5009950;28;20286;-70
2023/06/28 06:33:56;;;;;;;20.48;18.48;;;;;;;24.82;61.11;92736.78;5010771;28;20199;-70
2023/06/28 06:36:22;;;;;;;20.52;18.75;;;;;;;27.47;54.98;92750.00;5009651;28;20232;-69
2023/06/28 06:38:48;;;;;;;21.42;19.40;;;;;;;26.70;54.51;92734.38;5010439;28;20196;-71
2023/06/28 06:41:13;;;;;;;21.30;19.20;;;;;;;29.02;48.77;92748.09;5009542;28;20216;-71
2023/06/28 06:43:39;;;;;;;19.80;17.83;;;;;;;29.20;49.12;92748.81;5002255;28;20278;-71
2023/06/28 06:46:04;;;;;;;18.60;16.85;;;;;;;31.33;43.48;92753.00;5009417;28;20230;-71
2023/06/28 06:48:30;;;;;;;20.30;18.30;;;;;;;29.61;45.69;92755.16;5009877;28;20172;-71
2023/06/28 06:50:55;;;;;;;18.63;17.00;;;;;;;28.80;49.28;92746.63;5010323;28;20984;-71
2023/06/28 06:53:20;;;;;;;20.08;18.17;;;;;;;29.50;47.42;92727.53;5010315;28;20171;-70
2023/06/28 06:55:46;;;;;;;18.95;16.92;;;;;;;27.19;53.98;92731.09;5009530;28;20240;-70
2023/06/28 06:58:11;;;;;;;21.58;19.35;;;;;;;26.06;58.68;92726.25;5004820;28;20238;-71
2023/06/28 07:00:37;;;;;;;23.27;20.63;;;;;;;24.74;63.15;92714.56;5005826;28;20207;-70
2023/06/28 07:03:02;;;;;;;23.17;20.50;;;;;;;23.69;66.57;92724.41;5009709;28;20261;-71
2023/06/28 07:05:28;;;;;;;22.98;19.77;;;;;;;23.99;66.67;92721.09;5009009;28;20254;-70
2023/06/28 07:07:54;;;;;;;23.30;20.60;;;;;;;23.68;70.35;92711.44;5011961;28;20255;-71
2023/06/28 07:10:19;;;;;;;21.75;19.60;;;;;;;23.82;67.51;92717.00;5009061;28;20233;-71
2023/06/28 07:12:45;;;;;;;22.13;19.92;;;;;;;23.87;68.55;92723.94;5009563;28;20179;-70
2023/06/28 07:15:10;;;;;;;22.05;19.77;;;;;;;24.08;69.20;92718.97;5011464;28;20285;-71
2023/06/28 07:17:35;;;;;;;23.95;21.65;;;;;;;24.06;67.19;92726.56;5009759;28;20189;-71
2023/06/28 07:20:01;;;;;;;23.50;21.20;;;;;;;23.58;68.43;92718.13;5010286;28;20240;-70
2023/06/28 07:22:27;;;;;;;23.15;20.30;;;;;;;23.96;68.98;92716.44;5021108;28;20184;-70
2023/06/28 07:24:52;;;;;;;22.92;20.45;;;;;;;23.88;70.61;92720.16;5009406;28;20221;-71
2023/06/28 07:27:18;;;;;;;23.80;21.40;;;;;;;23.55;68.85;92713.50;5008926;28;20205;-69
2023/06/28 07:29:43;;;;;;;22.17;19.75;;;;;;;23.62;69.00;92700.31;5007874;28;20242;-70
2023/06/28 07:32:08;;;;;;;22.30;20.05;;;;;;;23.78;68.52;92708.94;5009860;28;20250;-70
2023/06/28 07:34:34;;;;;;;21.45;19.35;;;;;;;23.63;69.00;92715.19;5009492;28;20234;-69
2023/06/28 07:37:01;;;;;;;20.88;18.77;;;;;;;23.84;68.71;92724.66;5009772;28;20185;-70
2023/06/28 07:39:26;;;;;;;21.58;19.48;;;;;;;23.21;70.05;92722.41;5009463;28;20226;-70
2023/06/28 07:41:52;;;;;;;22.08;19.92;;;;;;;21.72;73.97;92722.22;5009293;28;20199;-69
2023/06/28 07:44:17;;;;;;;24.35;20.35;;;;;;;21.72;76.67;92727.56;5008690;28;20218;-70
2023/06/28 07:46:42;;;;;;;21.23;19.00;;;;;;;21.61;77.41;92731.06;5009753;28;20205;-70
2023/06/28 07:49:08;;;;;;;20.98;18.92;;;;;;;21.83;75.68;92727.81;5008839;28;20278;-70
2023/06/28 07:51:33;;;;;;;21.65;19.65;;;;;;;21.25;79.47;92731.28;5009512;28;20200;-70
2023/06/28 07:53:58;;;;;;;21.38;19.02;;;;;;;21.36;77.72;92730.44;5009809;28;20181;-70
2023/06/28 07:56:24;;;;;;;21.60;18.92;;;;;;;21.65;77.86;92731.94;5007421;28;20234;-70
2023/06/28 07:58:49;;;;;;;20.75;18.73;;;;;;;21.73;76.27;92738.94;5005767;28;20183;-70
2023/06/28 08:01:15;;;;;;;19.77;17.73;;;;;;;21.45;75.67;92738.25;5009133;28;20221;-70
2023/06/28 08:03:41;;;;;;;21.60;18.45;;;;;;;21.67;73.64;92742.97;5008419;28;20236;-69
2023/06/28 08:06:06;;;;;;;20.00;18.00;;;;;;;21.92;73.04;92745.16;5009546;28;20226;-70
2023/06/28 08:08:31;;;;;;;18.17;16.58;;;;;;;21.93;71.99;92719.34;5017028;28;20181;-70
2023/06/28 08:10:57;;;;;;;18.85;17.05;;;;;;;22.71;69.08;92745.78;5008295;28;20240;-70
2023/06/28 08:13:22;;;;;;;18.90;16.42;;;;;;;23.18;66.74;92741.75;5009725;28;20200;-76
2023/06/28 08:15:47;;;;;;;17.92;15.63;;;;;;;23.43;65.77;92742.22;5014791;28;20224;-76
2023/06/28 08:18:15;;;;;;;17.70;15.93;;;;;;;23.29;66.16;92736.66;5009466;28;20210;-77
2023/06/28 08:20:43;;;;;;;17.77;16.05;;;;;;;23.49;66.45;92735.47;5011516;28;20280;-77
2023/06/28 08:23:10;;;;;;;18.27;16.67;;;;;;;23.54;63.09;92730.63;5014088;28;20228;-70
2023/06/28 08:25:35;;;;;;;19.55;16.88;;;;;;;24.18;61.25;92735.13;5008624;28;20294;-71
2023/06/28 08:28:00;;;;;;;18.42;16.42;;;;;;;23.98;64.50;92724.91;5010897;28;20189;-75
2023/06/28 08:30:26;;;;;;;17.42;15.82;;;;;;;24.76;60.81;92727.56;5012537;28;20239;-75
2023/06/28 08:32:51;;;;;;;17.50;15.90;;;;;;;24.52;60.00;92728.75;5012230;28;20204;-75
2023/06/28 08:35:16;;;;;;;18.15;16.35;;;;;;;24.08;61.78;92718.97;5003915;28;20218;-74
2023/06/28 08:37:42;;;;;;;17.45;15.25;;;;;;;23.38;63.51;92724.66;5012044;28;20197;-75
2023/06/28 08:40:07;;;;;;;18.10;16.40;;;;;;;22.84;66.07;92715.22;5011508;28;20233;-75
2023/06/28 08:42:34;;;;;;;17.75;16.17;;;;;;;21.69;70.09;92708.84;5011649;28;20221;-75
2023/06/28 08:45:02;;;;;;;17.50;15.65;;;;;;;22.35;68.98;92704.28;5011696;28;20227;-76
2023/06/28 08:47:31;;;;;;;18.20;16.30;;;;;;;22.69;67.57;92711.53;5011548;28;20186;-78
2023/06/28 08:49:57;;;;;;;17.50;15.02;;;;;;;22.04;70.95;92709.69;5011550;28;20228;-79
2023/06/28 08:52:23;;;;;;;23.88;16.35;;;;;;;23.18;69.16;92704.47;5013249;28;20186;-78
2023/06/28 08:54:50;;;;;;;18.10;15.70;;;;;;;23.46;67.94;92689.00;5011489;28;20227;-78
2023/06/28 08:57:16;;;;;;;18.00;16.08;;;;;;;23.56;66.02;92703.63;5011909;28;20229;-79
2023/06/28 08:59:42;;;;;;;18.48;16.67;;;;;;;23.64;66.07;92703.38;5012244;28;20231;-79
2023/06/28 09:02:16;;;;;;;22.60;15.90;;;;;;;23.67;69.69;92693.91;5012298;28;20217;-79
2023/06/28 09:04:42;;;;;;;18.38;16.42;;;;;;;23.87;62.75;92697.25;5011863;28;20223;-80
2023/06/28 09:07:08;;;;;;;17.45;15.65;;;;;;;23.60;64.59;92705.22;5012998;28;20213;-79
2023/06/28 09:09:35;;;;;;;17.75;15.90;;;;;;;23.02;69.47;92709.09;5021546;28;20223;-79
2023/06/28 09:12:01;;;;;;;18.10;16.17;;;;;;;23.41;67.42;92694.63;5012244;28;20177;-78
2023/06/28 09:14:27;;;;;;;16.67;14.68;;;;;;;23.31;65.18;92687.22;5014265;28;20245;-78
2023/06/28 09:16:53;;;;;;;16.50;15.10;;;;;;;22.99;67.43;92701.81;5020174;28;20202;-79
2023/06/28 09:19:19;;;;;;;17.50;15.77;;;;;;;23.48;65.79;92697.41;5011814;28;20206;-80
2023/06/28 09:21:45;;;;;;;16.55;15.00;;;;;;;23.84;64.24;92704.09;5023619;28;20224;-78
2023/06/28 09:24:12;;;;;;;16.35;14.90;;;;;;;23.40;66.26;92698.41;5011541;28;20244;-79
2023/06/28 09:26:40;;;;;;;20.25;16.50;;;;;;;22.59;67.24;92690.78;5012110;28;20197;-79
2023/06/28 09:29:08;;;;;;;15.68;14.30;;;;;;;23.51;65.37;92695.94;5011851;28;20199;-78
2023/06/28 09:31:38;;;;;;;16.27;14.68;;;;;;;23.59;64.58;92686.91;5011707;28;20181;-79
2023/06/28 09:34:04;;;;;;;16.38;14.82;;;;;;;23.31;65.24;92675.78;5012015;28;20189;-78
2023/06/28 09:36:29;;;;;;;16.75;15.20;;;;;;;23.34;67.42;92681.19;5011652;28;20218;-78
2023/06/28 09:38:56;;;;;;;18.45;16.38;;;;;;;23.17;68.12;92667.53;5012029;28;20204;-79
2023/06/28 09:41:21;;;;;;;19.48;15.80;;;;;;;23.89;64.29;92687.78;5011099;28;20228;-79
2023/06/28 09:43:47;;;;;;;17.70;15.93;;;;;;;23.06;67.22;92675.34;5011945;28;20218;-79
2023/06/28 09:46:14;;;;;;;16.98;15.45;;;;;;;23.06;66.49;92670.00;5010895;28;20537;-79
2023/06/28 09:48:49;;;;;;;16.23;14.75;;;;;;;23.61;66.78;92666.03;5010826;28;20194;-78
2023/06/28 09:51:15;;;;;;;16.30;14.73;;;;;;;23.28;66.68;92677.28;5010631;28;20225;-79
2023/06/28 09:53:58;;;;;;;16.75;15.25;;;;;;;23.68;65.48;92685.56;5011618;28;20197;-79
2023/06/28 09:56:34;;;;;;;18.25;16.35;;;;;;;23.58;63.79;92680.81;5010872;28;20241;-78
2023/06/28 09:59:05;;;;;;;16.88;15.30;;;;;;;24.13;61.73;92678.63;5011562;28;20217;-79
2023/06/28 10:01:30;;;;;;;18.48;16.17;;;;;;;23.58;67.36;92675.47;5011192;28;20464;-79
2023/06/28 10:03:58;;;;;;;18.50;15.48;;;;;;;23.29;66.05;92678.81;5011415;28;20295;-79
2023/06/28 10:06:25;;;;;;;17.25;15.65;;;;;;;23.48;64.65;92678.75;5013503;28;20225;-79
2023/06/28 10:08:50;;;;;;;17.58;15.82;;;;;;;23.18;66.98;92672.50;5023323;28;20246;-79
2023/06/28 10:11:16;;;;;;;17.80;15.90;;;;;;;23.07;66.32;92684.84;5010839;28;20225;-79
2023/06/28 10:13:45;;;;;;;18.42;16.67;;;;;;;23.36;67.43;92683.50;5010847;28;20254;-79
2023/06/28 10:16:17;;;;;;;17.77;16.15;;;;;;;23.53;64.40;92675.78;5021626;28;20271;-79
2023/06/28 10:18:43;;;;;;;18.05;16.45;;;;;;;23.18;68.08;92683.16;5010992;28;20181;-79
2023/06/28 10:21:09;;;;;;;17.50;15.75;;;;;;;23.40;66.45;92678.97;5020947;28;20241;-78
2023/06/28 10:23:35;;;;;;;19.15;17.15;;;;;;;23.54;68.19;92666.66;5011912;28;21256;-79
2023/06/28 10:26:02;;;;;;;16.83;15.13;;;;;;;23.12;65.32;92673.91;5010773;28;20242;-79
2023/06/28 10:28:31;;;;;;;17.20;15.50;;;;;;;23.56;64.16;92663.66;5011375;28;20222;-80
2023/06/28 10:30:57;;;;;;;18.17;16.58;;;;;;;23.93;65.47;92677.16;5009703;28;20253;-78
2023/06/28 10:33:24;;;;;;;17.48;15.77;;;;;;;23.98;65.46;92671.56;5010685;28;20183;-80
2023/06/28 10:35:50;;;;;;;15.90;14.50;;;;;;;24.21;61.50;92669.59;5011025;28;20238;-79
2023/06/28 10:38:15;;;;;;;17.05;15.30;;;;;;;24.98;62.54;92678.59;5010393;28;20186;-79
2023/06/28 10:40:45;;;;;;;17.23;15.57;;;;;;;25.07;61.67;92653.09;5010628;28;20236;-80
2023/06/28 10:43:30;;;;;;;15.95;14.65;;;;;;;25.16;58.76;92674.97;5010764;28;20194;-80
2023/06/28 10:45:55;;;;;;;18.15;16.27;;;;;;;24.47;62.19;92681.00;5010155;28;20297;-82
2023/06/28 10:48:22;;;;;;;16.45;15.05;;;;;;;24.04;62.66;92668.22;5010974;28;20238;-80
2023/06/28 10:50:49;;;;;;;16.60;15.02;;;;;;;23.92;63.21;92676.41;5009678;28;20219;-80
2023/06/28 10:53:22;;;;;;;18.35;16.55;;;;;;;23.77;63.21;92665.88;5010493;28;20166;-79
2023/06/28 10:56:07;;;;;;;16.90;15.15;;;;;;;24.20;61.66;92654.72;5010046;28;20226;-79
2023/06/28 10:58:43;;;;;;;16.60;15.00;;;;;;;24.10;63.36;92661.44;5010222;28;20194;-79
2023/06/28 11:01:10;;;;;;;15.07;13.80;;;;;;;23.86;63.33;92643.13;5001923;28;20236;-79
2023/06/28 11:03:42;;;;;;;17.25;15.50;;;;;;;24.34;62.57;92649.56;5009202;28;20237;-80
2023/06/28 11:06:10;;;;;;;16.48;14.93;;;;;;;24.34;61.35;92652.22;5001194;28;20231;-79
2023/06/28 11:08:40;;;;;;;16.38;14.80;;;;;;;24.35;63.02;92656.44;5019316;28;20202;-79
2023/06/28 11:11:07;;;;;;;16.75;15.05;;;;;;;23.43;63.18;92663.06;5010163;28;20225;-78
2023/06/28 11:13:39;;;;;;;16.40;14.75;;;;;;;23.97;63.73;92659.34;5042212;28;20261;-80